createdAt,value
2024-02-07T00:00:00.431Z,60.29
2024-02-07T00:02:30.197Z,60.48
2024-02-07T00:04:58.504Z,60.64
2024-02-07T00:07:26.692Z,60.80
2024-02-07T00:09:54.817Z,61.08
2024-02-07T00:12:23.233Z,61.33
2024-02-07T00:14:51.607Z,61.38
2024-02-07T00:17:19.667Z,61.55
2024-02-07T00:19:48.963Z,61.71
2024-02-07T00:22:17.369Z,61.79
2024-02-07T00:24:45.594Z,61.98
2024-02-07T00:27:13.913Z,62.17
2024-02-07T00:29:42.020Z,62.42
2024-02-07T00:32:10.292Z,62.52
2024-02-07T00:34:38.691Z,62.70
2024-02-07T00:37:06.908Z,62.86
2024-02-07T00:39:38.158Z,63.06
2024-02-07T00:42:06.565Z,63.69
2024-02-07T00:44:34.628Z,64.08
2024-02-07T00:47:02.792Z,64.45
2024-02-07T00:49:31.067Z,64.56
2024-02-07T00:52:00.418Z,64.87
2024-02-07T00:54:29.249Z,65.39
2024-02-07T00:56:57.332Z,65.88
2024-02-07T00:59:25.388Z,66.25
2024-02-07T01:02:37.304Z,66.48
2024-02-07T01:05:06.242Z,66.73
2024-02-07T01:07:34.512Z,66.66
2024-02-07T01:10:02.712Z,67.00
2024-02-07T01:12:30.993Z,66.93
2024-02-07T01:14:59.560Z,67.41
2024-02-07T01:17:27.928Z,67.93
2024-02-07T01:19:56.356Z,67.84
2024-02-07T01:22:24.705Z,68.14
2024-02-07T01:24:53.585Z,68.28
2024-02-07T01:27:21.844Z,68.41
2024-02-07T01:29:50.354Z,68.25
2024-02-07T01:32:18.630Z,68.25
2024-02-07T01:34:47.027Z,68.49
2024-02-07T01:37:16.042Z,68.68
2024-02-07T01:39:44.570Z,68.62
2024-02-07T01:42:12.854Z,68.69
2024-02-07T01:44:41.275Z,68.81
2024-02-07T01:47:14.262Z,68.97
2024-02-07T01:49:49.953Z,69.08
2024-02-07T01:52:22.467Z,68.94
2024-02-07T01:54:51.596Z,68.84
2024-02-07T01:57:21.058Z,68.53
2024-02-07T01:59:50.961Z,68.38
2024-02-07T02:02:20.655Z,68.46
2024-02-07T02:04:49.296Z,68.48
2024-02-07T02:07:19.339Z,68.51
2024-02-07T02:09:47.562Z,68.39
2024-02-07T02:12:15.926Z,68.20
2024-02-07T02:14:44.817Z,68.19
2024-02-07T02:17:13.018Z,68.30
2024-02-07T02:19:41.288Z,68.30
2024-02-07T02:22:32.094Z,68.21
2024-02-07T02:25:13.123Z,68.27
2024-02-07T02:28:40.888Z,68.14
2024-02-07T02:31:14.970Z,67.95
2024-02-07T02:33:45.496Z,67.91
2024-02-07T02:36:14.036Z,67.98
2024-02-07T02:38:42.703Z,68.09
2024-02-07T02:41:11.141Z,68.00
2024-02-07T02:43:40.810Z,67.99
2024-02-07T02:46:10.861Z,68.22
2024-02-07T02:48:40.760Z,68.32
2024-02-07T02:51:09.339Z,68.33
2024-02-07T02:53:38.743Z,68.29
2024-02-07T02:56:07.517Z,68.29
2024-02-07T02:58:42.841Z,68.54
2024-02-07T03:01:13.630Z,68.68
2024-02-07T03:03:45.800Z,68.75
2024-02-07T03:06:29.975Z,68.78
2024-02-07T03:09:20.715Z,69.12
2024-02-07T03:11:49.833Z,69.35
2024-02-07T03:14:18.159Z,69.38
2024-02-07T03:16:47.315Z,69.39
2024-02-07T03:19:15.585Z,69.46
2024-02-07T03:21:45.195Z,69.52
2024-02-07T03:24:13.430Z,69.69
2024-02-07T03:26:41.567Z,69.75
2024-02-07T03:29:09.872Z,69.67
2024-02-07T03:31:38.730Z,69.91
2024-02-07T03:34:08.058Z,69.87
2024-02-07T03:36:36.435Z,69.89
2024-02-07T03:39:08.382Z,69.97
2024-02-07T03:41:36.672Z,70.06
2024-02-07T03:44:10.452Z,70.14
2024-02-07T03:46:39.011Z,70.29
2024-02-07T03:49:08.856Z,70.46
2024-02-07T03:51:39.012Z,70.74
2024-02-07T03:54:08.983Z,71.07
2024-02-07T03:56:37.046Z,71.57
2024-02-07T03:59:05.255Z,71.71
2024-02-07T04:01:33.439Z,71.75
2024-02-07T04:04:01.853Z,71.67
2024-02-07T04:06:30.427Z,71.78
2024-02-07T04:08:59.084Z,71.87
2024-02-07T04:11:27.354Z,72.01
2024-02-07T04:13:55.470Z,72.04
2024-02-07T04:16:42.151Z,72.09
2024-02-07T04:19:31.530Z,72.26
2024-02-07T04:22:18.331Z,72.51
2024-02-07T04:25:04.936Z,72.80
2024-02-07T04:27:51.462Z,72.78
2024-02-07T04:30:38.184Z,72.86
2024-02-07T04:33:25.259Z,73.03
2024-02-07T04:36:11.740Z,73.11
2024-02-07T04:38:58.348Z,73.30
2024-02-07T04:41:44.793Z,73.64
2024-02-07T04:44:31.310Z,73.98
2024-02-07T04:47:17.907Z,73.44
2024-02-07T04:50:04.718Z,73.23
2024-02-07T04:52:51.312Z,73.09
2024-02-07T04:55:38.110Z,73.09
2024-02-07T04:58:24.803Z,73.00
2024-02-07T05:01:11.467Z,72.59
2024-02-07T05:03:57.954Z,72.51
2024-02-07T05:06:44.778Z,72.56
2024-02-07T05:09:31.201Z,72.44
2024-02-07T05:12:17.917Z,72.47
2024-02-07T05:14:48.780Z,72.27
2024-02-07T05:17:23.012Z,72.19
2024-02-07T05:19:52.164Z,72.11
2024-02-07T05:22:20.999Z,71.92
2024-02-07T05:24:49.283Z,71.80
2024-02-07T05:27:18.948Z,71.74
2024-02-07T05:29:47.213Z,71.84
2024-02-07T05:32:15.435Z,71.92
2024-02-07T05:34:43.745Z,71.97
2024-02-07T05:37:11.949Z,72.20
2024-02-07T05:39:40.708Z,72.27
2024-02-07T05:42:08.866Z,72.24
2024-02-07T05:44:37.063Z,72.47
2024-02-07T05:47:05.386Z,72.62
2024-02-07T05:49:33.801Z,72.76
2024-02-07T05:52:03.510Z,72.85
2024-02-07T05:54:32.140Z,73.04
2024-02-07T05:57:00.440Z,73.15
2024-02-07T05:59:31.629Z,73.28
2024-02-07T06:01:59.984Z,73.41
2024-02-07T06:04:28.302Z,73.47
2024-02-07T06:06:56.843Z,73.45
2024-02-07T06:09:25.216Z,73.62
2024-02-07T06:11:53.426Z,73.90
2024-02-07T06:14:21.575Z,74.16
2024-02-07T06:16:50.916Z,74.34
2024-02-07T06:19:19.968Z,74.50
2024-02-07T06:21:50.870Z,75.29
2024-02-07T06:24:22.095Z,75.56
2024-02-07T06:26:50.220Z,75.47
2024-02-07T06:29:18.570Z,75.72
2024-02-07T06:31:46.850Z,75.67
2024-02-07T06:34:22.629Z,75.65
2024-02-07T06:37:16.998Z,75.87
2024-02-07T06:39:45.109Z,75.85
2024-02-07T06:42:13.392Z,75.65
2024-02-07T06:44:41.436Z,75.73
2024-02-07T06:47:09.576Z,75.65
2024-02-07T06:49:38.052Z,75.85
2024-02-07T06:52:06.540Z,75.77
2024-02-07T06:54:34.579Z,75.76
2024-02-07T06:57:02.855Z,75.41
2024-02-07T06:59:30.864Z,75.16
2024-02-07T07:01:59.252Z,75.09
2024-02-07T07:04:27.496Z,74.93
2024-02-07T07:06:55.578Z,75.04
2024-02-07T07:09:23.686Z,74.87
2024-02-07T07:11:51.851Z,74.72
2024-02-07T07:14:19.947Z,74.65
2024-02-07T07:16:48.077Z,74.59
2024-02-07T07:19:17.297Z,74.66
2024-02-07T07:21:45.571Z,74.68
2024-02-07T07:24:13.542Z,74.86
2024-02-07T07:26:41.678Z,74.80
2024-02-07T07:29:11.909Z,75.02
2024-02-07T07:31:40.269Z,75.15
2024-02-07T07:34:08.662Z,75.19
2024-02-07T07:36:36.984Z,75.39
2024-02-07T07:39:07.172Z,75.56
2024-02-07T07:41:38.376Z,75.31
2024-02-07T07:44:09.408Z,75.23
2024-02-07T07:46:37.691Z,75.25
2024-02-07T07:49:05.954Z,75.10
2024-02-07T07:51:34.352Z,74.71
2024-02-07T07:54:02.590Z,74.73
2024-02-07T07:56:32.601Z,74.63
2024-02-07T07:59:01.054Z,74.68
2024-02-07T08:01:29.642Z,74.85
2024-02-07T08:03:57.860Z,75.02
2024-02-07T08:06:26.080Z,75.11
2024-02-07T08:08:54.315Z,74.75
2024-02-07T08:11:22.442Z,74.57
2024-02-07T08:13:50.778Z,74.17
2024-02-07T08:16:19.191Z,73.67
2024-02-07T08:18:48.468Z,73.25
2024-02-07T08:21:17.727Z,72.70
2024-02-07T08:23:45.919Z,72.54
2024-02-07T08:26:14.043Z,72.20
2024-02-07T08:28:42.205Z,72.10
2024-02-07T08:31:12.863Z,71.52
2024-02-07T08:33:41.197Z,71.05
2024-02-07T08:36:09.950Z,70.79
2024-02-07T08:38:38.901Z,70.51
2024-02-07T08:41:07.227Z,70.24
2024-02-07T08:43:35.376Z,69.98
2024-02-07T08:46:03.536Z,69.79
2024-02-07T08:48:31.957Z,69.48
2024-02-07T08:51:00.269Z,69.15
2024-02-07T08:53:28.962Z,68.93
2024-02-07T08:56:02.727Z,68.79
2024-02-07T08:58:33.911Z,68.49
2024-02-07T09:01:03.937Z,68.12
2024-02-07T09:03:32.328Z,67.84
2024-02-07T09:06:00.656Z,67.55
2024-02-07T09:08:33.414Z,67.50
2024-02-07T09:11:04.943Z,67.33
2024-02-07T09:13:33.049Z,66.96
2024-02-07T09:16:00.987Z,66.69
2024-02-07T09:18:29.145Z,66.66
2024-02-07T09:21:00.028Z,66.44
2024-02-07T09:23:28.190Z,66.15
2024-02-07T09:25:56.256Z,65.37
2024-02-07T09:28:35.791Z,65.12
2024-02-07T09:31:06.614Z,64.25
2024-02-07T09:33:34.796Z,63.90
2024-02-07T09:36:03.139Z,63.32
2024-02-07T09:38:31.389Z,63.11
2024-02-07T09:41:02.598Z,62.62
2024-02-07T09:43:30.800Z,62.18
2024-02-07T09:45:59.837Z,60.96
2024-02-07T09:48:29.050Z,60.88
2024-02-07T09:51:01.709Z,61.08
2024-02-07T09:53:36.220Z,60.45
2024-02-07T09:59:45.015Z,60.91
2024-02-07T10:02:17.677Z,60.98
2024-02-07T10:04:53.990Z,61.10
2024-02-07T10:07:22.519Z,61.00
2024-02-07T10:09:56.826Z,60.86
2024-02-07T10:12:25.588Z,60.89
2024-02-07T10:14:53.663Z,61.04
2024-02-07T10:17:21.829Z,61.27
2024-02-07T10:19:53.957Z,61.06
2024-02-07T10:22:22.436Z,61.27
2024-02-07T10:24:50.791Z,61.22
2024-02-07T10:27:20.790Z,60.70
2024-02-07T10:29:50.066Z,60.32
2024-02-07T10:32:19.606Z,60.60
2024-02-07T10:34:57.130Z,60.87
2024-02-07T10:37:26.594Z,60.84
2024-02-07T10:40:02.164Z,60.86
2024-02-07T10:42:30.475Z,61.11
2024-02-07T10:45:11.733Z,60.65
2024-02-07T10:47:40.204Z,59.17
2024-02-07T10:50:11.861Z,58.27
2024-02-07T10:52:42.691Z,58.41
2024-02-07T10:55:14.457Z,57.54
2024-02-07T10:57:46.842Z,57.39
2024-02-07T11:00:17.108Z,57.05
2024-02-07T11:02:48.974Z,56.75
2024-02-07T11:05:19.147Z,55.84
2024-02-07T11:07:48.400Z,55.70
2024-02-07T11:10:18.185Z,55.49
2024-02-07T11:12:49.029Z,55.38
2024-02-07T11:15:17.359Z,55.61
2024-02-07T11:17:45.708Z,55.39
2024-02-07T11:20:14.063Z,55.41
2024-02-07T11:22:52.549Z,55.46
2024-02-07T11:25:23.810Z,55.16
2024-02-07T11:27:53.220Z,54.97
2024-02-07T11:30:21.503Z,55.06
2024-02-07T11:32:52.926Z,54.95
2024-02-07T11:35:24.414Z,54.81
2024-02-07T11:37:53.504Z,54.86
2024-02-07T11:40:25.508Z,54.50
2024-02-07T11:43:03.319Z,54.15
2024-02-07T11:45:32.052Z,53.69
2024-02-07T11:48:00.422Z,53.64
2024-02-07T11:50:36.732Z,53.46
2024-02-07T11:53:05.521Z,52.81
2024-02-07T11:55:42.121Z,52.54
2024-02-07T11:58:10.446Z,52.13
2024-02-07T12:00:39.099Z,51.63
2024-02-07T12:03:14.155Z,51.48
2024-02-07T12:05:44.838Z,51.75
2024-02-07T12:08:15.086Z,51.54
2024-02-07T12:10:43.542Z,50.70
2024-02-07T12:13:12.324Z,50.47
2024-02-07T12:15:41.529Z,50.11
2024-02-07T12:18:10.374Z,49.86
2024-02-07T12:24:06.293Z,49.92
2024-02-07T12:26:34.504Z,50.22
2024-02-07T12:29:07.668Z,49.69
2024-02-07T12:31:36.094Z,49.48
2024-02-07T12:34:04.537Z,49.35
2024-02-07T12:36:34.456Z,49.40
2024-02-07T12:39:02.442Z,49.57
2024-02-07T12:41:30.688Z,48.80
2024-02-07T12:43:58.780Z,48.81
2024-02-07T12:46:26.966Z,49.17
2024-02-07T12:48:56.701Z,48.98
2024-02-07T12:51:27.474Z,48.83
2024-02-07T12:53:55.690Z,49.05
2024-02-07T12:56:24.664Z,49.12
2024-02-07T12:58:53.063Z,48.64
2024-02-07T13:01:27.829Z,48.33
2024-02-07T13:03:57.344Z,48.09
2024-02-07T13:06:26.201Z,47.75
2024-02-07T13:08:54.379Z,47.46
2024-02-07T13:11:22.571Z,47.27
2024-02-07T13:13:50.772Z,46.93
2024-02-07T13:16:21.531Z,47.10
2024-02-07T13:18:50.011Z,47.21
2024-02-07T13:21:18.349Z,47.03
2024-02-07T13:23:46.866Z,47.04
2024-02-07T13:26:15.075Z,47.40
2024-02-07T13:28:44.259Z,46.76
2024-02-07T13:31:12.443Z,46.31
2024-02-07T13:33:40.983Z,46.24
2024-02-07T13:36:09.273Z,45.70
2024-02-07T13:38:38.213Z,45.81
2024-02-07T13:41:07.274Z,45.98
2024-02-07T13:43:35.617Z,45.59
2024-02-07T13:46:03.990Z,45.08
2024-02-07T13:48:32.384Z,44.84
2024-02-07T13:51:03.561Z,45.01
2024-02-07T13:53:31.866Z,45.09
2024-02-07T13:56:00.183Z,45.42
2024-02-07T13:58:30.788Z,45.63
2024-02-07T14:01:00.110Z,45.88
2024-02-07T14:03:28.370Z,45.69
2024-02-07T14:05:56.726Z,45.41
2024-02-07T14:08:24.996Z,45.13
2024-02-07T14:10:53.469Z,45.39
2024-02-07T14:13:21.534Z,45.18
2024-02-07T14:15:49.697Z,45.45
2024-02-07T14:21:53.293Z,45.77
2024-02-07T14:24:21.438Z,45.71
2024-02-07T14:26:49.493Z,45.96
2024-02-07T14:29:17.572Z,46.22
2024-02-07T14:31:45.827Z,46.17
2024-02-07T14:34:16.296Z,46.29
2024-02-07T14:36:44.788Z,46.15
2024-02-07T14:39:13.003Z,46.33
2024-02-07T14:41:41.308Z,46.35
2024-02-07T14:44:09.527Z,46.57
2024-02-07T14:46:37.753Z,46.79
2024-02-07T14:49:07.038Z,46.77
2024-02-07T14:51:35.567Z,46.96
2024-02-07T14:54:04.301Z,47.28
2024-02-07T14:56:34.439Z,47.17
2024-02-07T14:59:02.879Z,47.29
2024-02-07T15:01:32.355Z,47.42
2024-02-07T15:04:00.447Z,47.46
2024-02-07T15:06:28.735Z,47.63
2024-02-07T15:08:56.751Z,47.75
2024-02-07T15:11:24.801Z,47.95
2024-02-07T15:13:52.990Z,48.15
2024-02-07T15:16:21.193Z,48.20
2024-02-07T15:18:49.325Z,48.45
2024-02-07T15:21:17.472Z,48.61
2024-02-07T15:23:45.441Z,48.85
2024-02-07T15:26:13.499Z,49.06
2024-02-07T15:28:41.564Z,49.17
2024-02-07T15:31:09.559Z,49.35
2024-02-07T15:33:40.163Z,49.55
2024-02-07T15:36:10.262Z,49.68
2024-02-07T15:38:38.244Z,49.85
2024-02-07T15:41:06.392Z,49.98
2024-02-07T15:43:34.501Z,50.21
2024-02-07T15:46:02.696Z,50.18
2024-02-07T15:48:30.750Z,50.29
2024-02-07T15:51:01.891Z,50.34
2024-02-07T15:53:30.265Z,50.45
2024-02-07T15:55:58.728Z,50.54
2024-02-07T15:58:26.870Z,50.64
2024-02-07T16:00:58.915Z,50.79
2024-02-07T16:03:26.968Z,50.84
2024-02-07T16:05:55.423Z,50.85
2024-02-07T16:08:23.440Z,50.95
2024-02-07T16:10:51.677Z,51.11
2024-02-07T16:13:19.913Z,51.20
2024-02-07T16:15:47.963Z,51.19
2024-02-07T16:18:16.109Z,51.27
2024-02-07T16:20:44.843Z,51.39
2024-02-07T16:23:12.854Z,51.41
2024-02-07T16:25:40.943Z,51.41
2024-02-07T16:28:09.034Z,51.49
2024-02-07T16:30:37.459Z,51.61
2024-02-07T16:33:06.829Z,51.72
2024-02-07T16:35:35.081Z,51.74
2024-02-07T16:38:03.461Z,51.81
2024-02-07T16:40:33.715Z,51.72
2024-02-07T16:43:05.186Z,51.74
2024-02-07T16:45:37.408Z,51.73
2024-02-07T16:48:06.448Z,51.76
2024-02-07T16:50:34.623Z,51.84
2024-02-07T16:53:04.819Z,51.98
2024-02-07T16:55:33.695Z,52.20
2024-02-07T16:58:01.848Z,52.37
2024-02-07T17:00:30.079Z,52.58
2024-02-07T17:02:58.309Z,52.75
2024-02-07T17:05:26.543Z,52.87
2024-02-07T17:07:57.155Z,53.01
2024-02-07T17:10:25.520Z,53.25
2024-02-07T17:12:53.955Z,53.44
2024-02-07T17:15:22.040Z,53.60
2024-02-07T17:17:50.320Z,53.61
2024-02-07T17:20:19.107Z,53.64
2024-02-07T17:22:47.794Z,53.88
2024-02-07T17:25:16.705Z,53.98
2024-02-07T17:27:44.768Z,54.05
2024-02-07T17:30:37.228Z,54.14
2024-02-07T17:33:06.553Z,54.17
2024-02-07T17:35:35.150Z,54.22
2024-02-07T17:38:03.661Z,54.46
2024-02-07T17:40:32.019Z,54.78
2024-02-07T17:43:00.304Z,54.95
2024-02-07T17:45:28.752Z,55.10
2024-02-07T17:47:57.079Z,55.20
2024-02-07T17:50:27.266Z,55.41
2024-02-07T17:52:55.628Z,55.65
2024-02-07T17:55:23.898Z,55.66
2024-02-07T17:57:54.613Z,55.73
2024-02-07T18:00:23.571Z,55.67
2024-02-07T18:02:52.600Z,55.74
2024-02-07T18:05:26.571Z,55.73
2024-02-07T18:08:01.376Z,55.94
2024-02-07T18:10:33.195Z,55.88
2024-02-07T18:13:04.950Z,56.08
2024-02-07T18:15:33.699Z,56.17
2024-02-07T18:18:05.192Z,56.11
2024-02-07T18:20:35.530Z,55.96
2024-02-07T18:23:04.060Z,56.00
2024-02-07T18:25:34.367Z,55.97
2024-02-07T18:28:02.454Z,55.88
2024-02-07T18:30:30.695Z,55.93
2024-02-07T18:32:59.006Z,55.99
2024-02-07T18:35:28.302Z,55.94
2024-02-07T18:37:56.586Z,55.97
2024-02-07T18:40:26.363Z,55.99
2024-02-07T18:42:54.672Z,56.01
2024-02-07T18:45:26.471Z,56.08
2024-02-07T18:48:01.564Z,55.99
2024-02-07T18:50:30.168Z,56.07
2024-02-07T18:52:59.261Z,56.00
2024-02-07T18:55:27.803Z,56.12
2024-02-07T18:57:58.431Z,56.23
2024-02-07T19:00:26.548Z,56.20
2024-02-07T19:02:54.663Z,56.24
2024-02-07T19:05:23.000Z,56.14
2024-02-07T19:07:51.224Z,56.25
2024-02-07T19:10:19.358Z,56.44
2024-02-07T19:12:47.429Z,56.57
2024-02-07T19:15:15.670Z,56.76
2024-02-07T19:17:43.916Z,56.91
2024-02-07T19:20:12.362Z,56.96
2024-02-07T19:22:40.783Z,57.24
2024-02-07T19:25:09.517Z,57.16
2024-02-07T19:27:41.725Z,57.14
2024-02-07T19:30:10.940Z,57.48
2024-02-07T19:32:40.975Z,57.50
2024-02-07T19:35:09.813Z,57.55
2024-02-07T19:37:38.603Z,57.53
2024-02-07T19:40:10.368Z,57.48
2024-02-07T19:42:38.731Z,57.65
2024-02-07T19:45:10.784Z,57.59
2024-02-07T19:47:39.112Z,57.63
2024-02-07T19:50:09.359Z,57.82
2024-02-07T19:52:39.019Z,57.87
2024-02-07T19:55:07.535Z,57.88
2024-02-07T19:57:35.850Z,57.96
2024-02-07T20:00:04.470Z,57.99
2024-02-07T20:02:52.211Z,57.93
2024-02-07T20:05:21.317Z,57.90
2024-02-07T20:07:49.745Z,58.04
2024-02-07T20:10:18.137Z,58.05
2024-02-07T20:12:47.291Z,58.14
2024-02-07T20:15:16.808Z,58.25
2024-02-07T20:17:45.759Z,58.15
2024-02-07T20:20:14.459Z,58.16
2024-02-07T20:22:42.751Z,58.12
2024-02-07T20:25:13.481Z,58.13
2024-02-07T20:27:42.033Z,58.10
2024-02-07T20:30:10.498Z,58.16
2024-02-07T20:32:38.864Z,58.23
2024-02-07T20:35:07.672Z,58.25
2024-02-07T20:37:36.025Z,58.38
2024-02-07T20:40:04.458Z,58.30
2024-02-07T20:42:32.799Z,58.37
2024-02-07T20:45:01.046Z,58.27
2024-02-07T20:47:36.746Z,58.44
2024-02-07T20:50:06.272Z,58.48
2024-02-07T20:52:34.999Z,58.50
2024-02-07T20:55:03.761Z,58.55
2024-02-07T20:57:32.076Z,58.53
2024-02-07T21:00:02.439Z,58.56
2024-02-07T21:02:33.406Z,58.53
2024-02-07T21:05:01.828Z,58.50
2024-02-07T21:07:32.951Z,58.43
2024-02-07T21:10:01.517Z,58.38
2024-02-07T21:12:29.855Z,58.37
2024-02-07T21:14:58.163Z,58.53
2024-02-07T21:17:29.450Z,58.67
2024-02-07T21:19:58.432Z,58.54
2024-02-07T21:22:26.719Z,58.52
2024-02-07T21:24:55.045Z,58.51
2024-02-07T21:27:23.229Z,58.49
2024-02-07T21:29:54.493Z,58.41
2024-02-07T21:32:23.066Z,58.35
2024-02-07T21:34:52.605Z,58.33
2024-02-07T21:37:20.899Z,58.35
2024-02-07T21:39:49.362Z,58.40
2024-02-07T21:42:17.495Z,58.52
2024-02-07T21:44:45.563Z,58.55
2024-02-07T21:47:16.895Z,58.61
2024-02-07T21:49:45.398Z,58.68
2024-02-07T21:52:13.777Z,58.71
2024-02-07T21:54:42.588Z,58.73
2024-02-07T21:57:11.235Z,58.72
2024-02-07T21:59:40.018Z,58.86
2024-02-07T22:02:11.159Z,58.81
2024-02-07T22:04:53.655Z,58.89
2024-02-07T22:07:26.302Z,59.04
2024-02-07T22:09:54.815Z,58.95
2024-02-07T22:12:25.393Z,58.94
2024-02-07T22:14:54.994Z,59.05
2024-02-07T22:17:23.412Z,59.14
2024-02-07T22:19:53.479Z,59.09
2024-02-07T22:22:22.331Z,59.14
2024-02-07T22:24:50.695Z,59.07
2024-02-07T22:27:18.948Z,58.96
2024-02-07T22:29:47.286Z,59.04
2024-02-07T22:32:15.790Z,59.00
2024-02-07T22:34:44.185Z,58.95
2024-02-07T22:37:15.818Z,58.85
2024-02-07T22:39:44.000Z,58.79
2024-02-07T22:42:14.133Z,58.78
2024-02-07T22:44:43.353Z,58.76
2024-02-07T22:47:14.279Z,58.83
2024-02-07T22:49:43.077Z,58.86
2024-02-07T22:52:11.499Z,58.76
2024-02-07T22:54:39.728Z,58.68
2024-02-07T22:57:08.545Z,58.68
2024-02-07T22:59:36.713Z,58.58
2024-02-07T23:02:05.306Z,58.63
2024-02-07T23:04:33.518Z,58.69
2024-02-07T23:07:03.065Z,58.71
2024-02-07T23:09:31.296Z,58.90
2024-02-07T23:11:59.408Z,58.90
2024-02-07T23:14:27.798Z,58.78
2024-02-07T23:16:56.112Z,58.88
2024-02-07T23:19:26.595Z,58.95
2024-02-07T23:21:55.170Z,59.03
2024-02-07T23:24:23.302Z,59.10
2024-02-07T23:26:51.518Z,59.06
2024-02-07T23:29:19.671Z,59.12
2024-02-07T23:31:48.437Z,59.29
2024-02-07T23:34:16.562Z,59.47
2024-02-07T23:36:45.574Z,59.71
2024-02-07T23:39:13.926Z,59.84
2024-02-07T23:41:42.118Z,59.93
2024-02-07T23:44:10.411Z,59.85
2024-02-07T23:46:38.702Z,59.82
2024-02-07T23:49:07.217Z,59.75
2024-02-07T23:51:36.291Z,59.78
2024-02-07T23:54:04.614Z,59.84
2024-02-07T23:56:32.776Z,60.00
2024-02-07T23:59:01.733Z,60.14
